Time;durP1;ratioP1;P1;durP2;ratioP2;P2;SDS_P1;SDS_P2;PMS_P1;PMS_P2;Temp;Humidity;BMP_temperature;BMP_pressure;BME280_temperature;BME280_humidity;BME280_pressure;Samples;Min_cycle;Max_cycle;Signal;HPM_P1;HPM_P2
2023/06/24 00:02:56;;;;;;;5.40;3.70;;;;;;;19.22;45.87;100576.53;10563358;28;20238;-71
2023/06/24 00:08:01;;;;;;;3.70;3.33;;;;;;;21.14;43.18;100557.91;10559200;28;20268;-71
2023/06/24 00:13:03;;;;;;;4.63;3.58;;;;;;;20.74;44.44;100585.78;10569322;27;20213;-71
2023/06/24 00:18:05;;;;;;;5.15;3.58;;;;;;;19.20;46.11;100661.69;10572280;27;20222;-70
2023/06/24 00:23:08;;;;;;;3.80;3.45;;;;;;;18.22;48.04;100600.53;10571093;27;20214;-71
2023/06/24 00:28:10;;;;;;;5.25;4.25;;;;;;;20.67;44.53;100507.03;10557216;27;20230;-71
2023/06/24 00:33:13;;;;;;;4.20;3.80;;;;;;;20.93;43.95;100549.28;10568764;27;20266;-71
2023/06/24 00:38:15;;;;;;;6.45;4.03;;;;;;;21.21;42.99;100599.47;10563410;27;20226;-71
2023/06/24 00:43:16;;;;;;;5.57;4.07;;;;;;;20.63;43.69;100629.03;10571462;27;20726;-70
2023/06/24 00:48:20;;;;;;;7.05;3.65;;;;;;;20.63;43.69;100614.56;10566387;27;20229;-69
2023/06/24 00:53:24;;;;;;;4.30;3.13;;;;;;;20.66;43.87;100625.00;10565491;27;20202;-71
2023/06/24 00:58:27;;;;;;;4.68;3.92;;;;;;;20.48;43.46;100644.91;10561338;27;20255;-71
2023/06/24 01:03:29;;;;;;;4.93;3.50;;;;;;;18.67;47.25;100609.69;10561097;27;20230;-71
2023/06/24 01:08:32;;;;;;;6.80;3.45;;;;;;;20.73;43.57;100576.78;10575075;27;20739;-71
2023/06/24 01:13:33;;;;;;;5.03;3.80;;;;;;;19.05;45.10;100691.00;10557177;27;20258;-71
2023/06/24 01:18:45;;;;;;;4.35;3.88;;;;;;;20.27;44.01;100619.06;10568890;27;20241;-70
2023/06/24 01:24:04;;;;;;;4.90;3.90;;;;;;;19.70;45.13;100609.25;10566158;27;20202;-70
2023/06/24 01:29:21;;;;;;;8.00;3.58;;;;;;;19.46;45.34;100651.66;10565352;27;20236;-70
2023/06/24 01:34:34;;;;;;;6.00;3.80;;;;;;;17.50;48.79;100661.91;10564845;27;20201;-70
2023/06/24 01:40:06;;;;;;;5.88;4.65;;;;;;;17.29;49.42;100582.66;10565651;27;20229;-70
2023/06/24 01:45:13;;;;;;;4.50;4.10;;;;;;;17.34;49.10;100579.31;10567301;27;20248;-70
2023/06/24 01:50:20;;;;;;;7.63;3.90;;;;;;;18.07;47.25;100564.75;10566258;27;20230;-70
2023/06/24 01:55:24;;;;;;;5.33;3.80;;;;;;;18.66;45.48;100657.66;10557827;27;20202;-70
2023/06/24 02:00:26;;;;;;;5.00;4.03;;;;;;;17.67;47.75;100608.22;10559706;27;20302;-71
2023/06/24 02:05:28;;;;;;;5.03;4.37;;;;;;;17.17;48.75;100617.63;10539545;27;20287;-71
2023/06/24 02:10:30;;;;;;;4.70;4.10;;;;;;;17.70;47.71;100570.72;10568040;27;20201;-71
2023/06/24 02:15:35;;;;;;;4.77;4.27;;;;;;;16.80;49.01;100621.69;10557038;27;20238;-71
2023/06/24 02:20:39;;;;;;;4.80;4.23;;;;;;;16.90;49.20;100591.56;10558074;27;20214;-70
2023/06/24 02:25:43;;;;;;;7.63;4.43;;;;;;;18.47;46.31;100643.13;10558824;27;20237;-71
2023/06/24 02:30:46;;;;;;;6.23;4.00;;;;;;;19.91;44.22;100577.28;10565324;27;20332;-67
2023/06/24 02:35:48;;;;;;;5.20;3.93;;;;;;;19.71;44.47;100639.97;10558922;27;20279;-68
2023/06/24 02:40:51;;;;;;;6.07;4.10;;;;;;;19.33;45.25;100668.03;10554888;27;20233;-68
2023/06/24 02:45:53;;;;;;;7.00;4.40;;;;;;;18.00;47.14;100712.88;10568848;27;20449;-68
2023/06/24 02:50:56;;;;;;;4.83;4.30;;;;;;;19.72;45.05;100595.44;10549666;27;20312;-70
2023/06/24 02:55:59;;;;;;;6.70;4.50;;;;;;;19.84;44.44;100622.69;10562547;27;20253;-71
2023/06/24 03:01:02;;;;;;;6.07;4.73;;;;;;;19.66;45.22;100628.94;10560370;27;20256;-70
2023/06/24 03:06:04;;;;;;;6.70;3.93;;;;;;;18.87;46.02;100701.75;10568574;28;20331;-71
2023/06/24 03:11:06;;;;;;;6.15;4.18;;;;;;;18.88;45.99;100676.25;10555214;28;20202;-70
2023/06/24 03:16:12;;;;;;;7.73;3.97;;;;;;;18.86;45.82;100672.94;10551530;28;20342;-70
2023/06/24 03:21:14;;;;;;;6.80;4.60;;;;;;;18.72;46.65;100624.22;10560259;28;20209;-69
2023/06/24 03:26:16;;;;;;;6.30;4.40;;;;;;;18.94;46.29;100634.75;10558959;27;20287;-67
2023/06/24 03:31:17;;;;;;;5.37;4.47;;;;;;;19.02;45.97;100637.19;10554559;28;20201;-70
2023/06/24 03:36:20;;;;;;;5.50;4.60;;;;;;;19.09;45.88;100624.41;10559023;28;20637;-69
2023/06/24 03:41:21;;;;;;;7.00;5.00;;;;;;;19.12;45.68;100648.38;10557012;28;20205;-70
2023/06/24 03:46:23;;;;;;;5.80;5.00;;;;;;;19.09;46.16;100643.41;10565668;27;20308;-70
2023/06/24 03:51:25;;;;;;;5.10;4.33;;;;;;;18.56;47.34;100641.84;10564603;27;20255;-67
2023/06/24 03:56:27;;;;;;;6.37;5.10;;;;;;;18.97;46.27;100602.59;10572041;27;20576;-70
2023/06/24 04:01:31;;;;;;;5.50;4.80;;;;;;;18.87;46.75;100610.38;10564867;27;20205;-70
2023/06/24 04:06:33;;;;;;;5.67;4.90;;;;;;;18.50;47.03;100683.34;10565084;27;20254;-70
2023/06/24 04:11:36;;;;;;;6.07;4.77;;;;;;;18.85;46.76;100661.28;10558207;27;20210;-70
2023/06/24 04:16:37;;;;;;;5.60;4.90;;;;;;;19.35;45.98;100619.81;10570595;27;20278;-70
2023/06/24 04:21:39;;;;;;;7.57;5.67;;;;;;;19.29;46.78;100631.56;10560452;27;20221;-70
2023/06/24 04:26:41;;;;;;;5.73;5.23;;;;;;;19.52;46.24;100626.34;10572948;27;20229;-69
2023/06/24 04:31:42;;;;;;;6.10;5.40;;;;;;;19.37;46.35;100655.72;10557027;27;20648;-69
2023/06/24 04:36:44;;;;;;;7.97;6.03;;;;;;;19.14;47.17;100681.53;10566866;27;20382;-70
2023/06/24 04:41:46;;;;;;;7.50;5.80;;;;;;;18.97;47.81;100681.25;10556427;27;20259;-70
2023/06/24 04:46:48;;;;;;;6.83;5.90;;;;;;;16.71;51.12;100764.28;10558501;28;20290;-70
2023/06/24 04:51:50;;;;;;;7.03;5.63;;;;;;;17.95;49.61;100667.50;10557908;27;20305;-69
2023/06/24 04:56:55;;;;;;;6.83;5.60;;;;;;;18.09;49.25;100666.41;10558069;28;20271;-70
2023/06/24 05:01:56;;;;;;;7.50;5.43;;;;;;;18.95;47.42;100664.38;10560512;27;20426;-71
2023/06/24 05:06:58;;;;;;;7.70;6.13;;;;;;;17.68;50.00;100705.44;10557240;27;20272;-70
2023/06/24 05:12:00;;;;;;;8.27;5.73;;;;;;;17.57;50.95;100678.97;10561000;27;20194;-70
2023/06/24 05:17:05;;;;;;;7.67;6.43;;;;;;;17.02;51.88;100710.78;10560869;27;20277;-69
2023/06/24 05:22:08;;;;;;;8.03;6.23;;;;;;;17.82;50.64;100705.44;10549039;27;20244;-70
2023/06/24 05:27:10;;;;;;;6.77;6.07;;;;;;;17.62;51.65;100683.75;10551426;27;20222;-70
2023/06/24 05:32:12;;;;;;;8.80;6.30;;;;;;;17.43;51.96;100705.22;10555303;27;20625;-70
2023/06/24 05:37:14;;;;;;;7.57;6.13;;;;;;;16.77;54.24;100685.13;10554571;27;20245;-69
2023/06/24 05:42:16;;;;;;;8.53;6.80;;;;;;;16.28;55.18;100740.19;10550521;27;20215;-70
2023/06/24 05:47:18;;;;;;;7.10;6.37;;;;;;;17.61;53.07;100682.91;10555937;27;20233;-70
2023/06/24 05:52:20;;;;;;;7.50;6.63;;;;;;;18.20;52.38;100636.97;10556388;27;20283;-70
2023/06/24 05:57:22;;;;;;;7.43;6.73;;;;;;;17.57;53.23;100716.84;10548910;27;20231;-69
2023/06/24 06:02:23;;;;;;;8.53;7.43;;;;;;;19.56;50.34;100681.84;10556143;27;20300;-70
2023/06/24 06:07:25;;;;;;;7.50;6.77;;;;;;;19.90;49.10;100709.50;10554537;27;20234;-70
2023/06/24 06:12:27;;;;;;;7.97;7.13;;;;;;;20.46;48.07;100710.41;10553942;27;20211;-70
2023/06/24 06:17:29;;;;;;;6.50;5.65;;;;;;;20.84;46.98;100760.13;10548811;27;20769;-70
2023/06/24 06:22:32;;;;;;;6.65;5.70;;;;;;;20.27;46.84;100798.41;10549128;27;20205;-70
2023/06/24 06:27:33;;;;;;;5.70;4.90;;;;;;;20.80;46.11;100783.41;10543916;27;20257;-71
2023/06/24 06:32:35;;;;;;;6.00;5.28;;;;;;;20.57;47.05;100754.19;10554731;27;20210;-71
2023/06/24 06:37:37;;;;;;;6.72;5.93;;;;;;;20.60;46.52;100754.56;10538550;27;20222;-70
2023/06/24 06:42:39;;;;;;;8.40;6.00;;;;;;;19.83;47.83;100832.84;10557102;27;20763;-71
2023/06/24 06:47:41;;;;;;;7.95;5.38;;;;;;;19.18;48.54;100845.56;10546123;27;20671;-70
2023/06/24 06:52:43;;;;;;;7.43;6.47;;;;;;;19.25;49.67;100774.13;10558449;27;20206;-69
2023/06/24 06:57:44;;;;;;;6.53;5.57;;;;;;;20.93;46.83;100708.94;10549984;27;20233;-70
2023/06/24 07:02:46;;;;;;;8.02;5.90;;;;;;;21.42;45.94;100737.75;10563601;27;20237;-69
2023/06/24 07:07:49;;;;;;;5.88;5.28;;;;;;;19.47;49.13;100780.03;10544938;28;20704;-70
2023/06/24 07:12:57;;;;;;;6.70;5.50;;;;;;;20.11;47.77;100797.91;10560557;28;20209;-70
2023/06/24 07:17:59;;;;;;;6.40;5.53;;;;;;;20.33;47.76;100785.81;10533719;28;20303;-70
2023/06/24 07:23:02;;;;;;;7.18;5.53;;;;;;;20.46;47.39;100775.63;10567519;27;20732;-70
2023/06/24 07:28:04;;;;;;;6.40;5.25;;;;;;;20.70;47.17;100743.13;10563034;27;20663;-70
2023/06/24 07:33:07;;;;;;;5.53;4.68;;;;;;;21.12;45.78;100785.91;10567885;27;20293;-70
2023/06/24 07:38:09;;;;;;;5.80;4.30;;;;;;;23.55;43.05;100730.91;10562449;27;20224;-70
2023/06/24 07:43:11;;;;;;;6.47;4.88;;;;;;;21.92;45.30;100743.81;10526499;27;20206;-70
2023/06/24 07:48:13;;;;;;;5.82;4.88;;;;;;;22.21;44.43;100736.56;10551687;27;20237;-70
2023/06/24 07:53:15;;;;;;;6.25;4.70;;;;;;;23.16;42.91;100731.69;10548343;27;20733;-70
2023/06/24 07:58:16;;;;;;;6.95;4.95;;;;;;;22.80;43.48;100791.00;10557248;27;20292;-70
2023/06/24 08:03:18;;;;;;;5.63;4.40;;;;;;;22.03;43.75;100783.03;10542587;27;20253;-70
2023/06/24 08:08:20;;;;;;;5.63;4.57;;;;;;;21.75;44.54;100790.81;10555483;27;20316;-70
2023/06/24 08:13:22;;;;;;;4.90;4.30;;;;;;;24.39;40.70;100746.38;10558253;27;20680;-69
2023/06/24 08:18:24;;;;;;;4.97;4.07;;;;;;;25.21;39.76;100746.50;10556053;27;20599;-70
2023/06/24 08:23:25;;;;;;;5.45;3.97;;;;;;;23.27;42.53;100738.13;10564438;27;20220;-71
2023/06/24 08:28:27;;;;;;;4.20;3.80;;;;;;;25.00;40.44;100746.28;10561724;27;20234;-71
2023/06/24 08:33:29;;;;;;;7.65;3.95;;;;;;;22.72;41.34;100777.72;10564723;27;20195;-67
2023/06/24 08:38:30;;;;;;;4.07;3.67;;;;;;;23.28;41.33;100734.34;10571704;27;20289;-67
2023/06/24 08:43:32;;;;;;;6.57;4.68;;;;;;;24.86;40.13;100695.75;10558688;27;20268;-67
2023/06/24 08:48:39;;;;;;;5.40;3.78;;;;;;;24.97;39.97;100715.84;10566150;27;20230;-66
2023/06/24 08:53:46;;;;;;;3.95;3.25;;;;;;;24.74;38.00;100756.94;10565144;27;20658;-66
2023/06/24 08:58:48;;;;;;;4.95;3.38;;;;;;;24.76;38.28;100773.09;10540488;27;20246;-65
2023/06/24 09:03:49;;;;;;;4.82;3.00;;;;;;;25.19;34.58;100774.13;10556602;27;20225;-68
2023/06/24 09:08:53;;;;;;;3.50;2.63;;;;;;;24.50;35.33;100788.38;10563897;27;20234;-68
2023/06/24 09:13:59;;;;;;;3.17;2.85;;;;;;;25.18;34.78;100753.28;10541795;27;20210;-67
2023/06/24 09:19:01;;;;;;;3.13;2.85;;;;;;;25.92;35.29;100718.81;10564912;27;20214;-68
2023/06/24 09:24:04;;;;;;;3.65;3.30;;;;;;;25.80;35.06;100716.28;10565219;27;20293;-68
2023/06/24 09:29:08;;;;;;;3.30;3.00;;;;;;;25.76;35.24;100737.09;10529877;27;20230;-68
2023/06/24 09:34:13;;;;;;;3.15;2.72;;;;;;;24.48;36.11;100703.00;10559000;27;20227;-66
2023/06/24 09:39:15;;;;;;;3.00;2.72;;;;;;;25.96;33.41;100672.50;10553994;27;20282;-68
2023/06/24 09:44:31;;;;;;;4.97;3.15;;;;;;;25.74;35.40;100664.44;10541046;27;20214;-68
2023/06/24 09:49:33;;;;;;;3.63;3.20;;;;;;;25.62;34.79;100678.31;10566875;27;20229;-66
2023/06/24 09:54:36;;;;;;;6.38;3.20;;;;;;;26.40;34.49;100636.47;10524876;28;20218;-67
2023/06/24 09:59:39;;;;;;;3.25;2.95;;;;;;;26.38;34.07;100633.19;10559864;27;20621;-67
2023/06/24 10:04:43;;;;;;;3.58;3.08;;;;;;;26.85;33.53;100606.63;10542844;27;20295;-68
2023/06/24 10:09:45;;;;;;;4.38;3.22;;;;;;;26.74;33.65;100619.56;10542592;27;20295;-67
2023/06/24 10:14:47;;;;;;;3.88;3.05;;;;;;;27.20;32.97;100615.97;10537515;27;20669;-68
2023/06/24 10:19:52;;;;;;;4.25;3.08;;;;;;;27.04;32.25;100635.22;10563661;27;20294;-68
2023/06/24 10:24:54;;;;;;;6.07;2.83;;;;;;;26.74;31.97;100609.38;10560706;27;20209;-68
2023/06/24 10:30:04;;;;;;;3.72;2.80;;;;;;;26.81;32.98;100600.88;10546479;27;20226;-68
2023/06/24 10:35:06;;;;;;;4.45;3.13;;;;;;;27.26;32.97;100579.16;10554468;27;20205;-68
2023/06/24 10:40:09;;;;;;;5.45;3.10;;;;;;;26.15;34.41;100579.63;10560289;27;20226;-68
2023/06/24 10:45:15;;;;;;;3.50;3.00;;;;;;;27.16;33.19;100555.25;10544736;27;20655;-67
2023/06/24 10:50:19;;;;;;;6.13;2.95;;;;;;;26.75;32.99;100577.25;10540026;28;20246;-67
2023/06/24 10:55:28;;;;;;;3.55;2.90;;;;;;;27.66;32.32;100558.13;10546424;27;20675;-68
2023/06/24 11:06:22;;;;;;;4.22;3.13;;;;;;;25.92;33.71;100537.06;10458998;28;20837;-67
2023/06/24 11:11:24;;;;;;;4.93;2.80;;;;;;;26.79;33.58;100528.97;10428586;28;20204;-67
2023/06/24 11:16:26;;;;;;;3.30;3.00;;;;;;;26.06;34.13;100529.94;10419423;28;20235;-66
2023/06/24 11:21:31;;;;;;;4.32;3.22;;;;;;;26.73;33.23;100528.13;10425663;28;20211;-66
2023/06/24 11:26:33;;;;;;;3.75;2.97;;;;;;;26.73;32.87;100514.41;10427575;28;20679;-66
2023/06/24 11:31:35;;;;;;;4.20;3.00;;;;;;;26.91;33.52;100503.97;10426945;28;20208;-66
2023/06/24 11:36:37;;;;;;;3.70;3.00;;;;;;;27.51;32.37;100495.81;10414610;28;20247;-66
2023/06/24 11:41:39;;;;;;;6.53;2.90;;;;;;;26.60;33.15;100505.88;10429307;28;20217;-67
2023/06/24 11:46:41;;;;;;;4.03;3.42;;;;;;;26.78;32.48;100515.50;10421673;28;20235;-66
2023/06/24 11:51:50;;;;;;;3.00;2.80;;;;;;;28.48;33.11;100464.13;10429833;28;20205;-67
2023/06/24 11:56:53;;;;;;;3.50;2.85;;;;;;;25.47;32.92;100501.81;10420430;28;20228;-67
2023/06/24 12:01:57;;;;;;;4.35;2.90;;;;;;;27.81;31.39;100478.34;10418821;28;20297;-66
2023/06/24 12:07:00;;;;;;;3.38;3.08;;;;;;;27.77;32.81;100473.72;10417132;28;20239;-67
2023/06/24 12:12:01;;;;;;;3.15;2.80;;;;;;;27.41;30.90;100490.34;10425263;28;20204;-67
2023/06/24 12:17:03;;;;;;;4.55;2.90;;;;;;;27.33;31.06;100497.28;10401557;28;20713;-67
2023/06/24 12:22:05;;;;;;;3.63;2.90;;;;;;;27.18;32.24;100486.31;10396495;28;20660;-67
2023/06/24 12:27:07;;;;;;;3.45;2.72;;;;;;;26.77;31.78;100487.22;10397538;28;20311;-67
2023/06/24 12:32:10;;;;;;;5.03;2.88;;;;;;;27.60;31.72;100454.81;10391876;28;20207;-66
2023/06/24 12:37:12;;;;;;;4.28;3.03;;;;;;;27.93;31.63;100458.75;10390564;28;20270;-67
2023/06/24 12:42:13;;;;;;;2.60;2.40;;;;;;;27.86;31.52;100428.81;10391404;28;20275;-67
2023/06/24 12:47:15;;;;;;;4.28;3.00;;;;;;;27.65;31.12;100463.84;10396478;28;20290;-67
2023/06/24 12:52:17;;;;;;;3.00;2.72;;;;;;;27.99;31.25;100426.56;10389703;28;20200;-66
2023/06/24 12:57:19;;;;;;;2.92;2.70;;;;;;;27.93;31.46;100433.19;10386034;28;20247;-67
2023/06/24 13:02:21;;;;;;;4.10;2.63;;;;;;;27.70;30.62;100432.81;10388004;28;20277;-67
2023/06/24 13:07:23;;;;;;;7.15;3.05;;;;;;;27.83;31.74;100415.69;10384250;28;20229;-67
2023/06/24 13:12:25;;;;;;;3.22;2.92;;;;;;;26.56;31.73;100426.84;10387046;28;20217;-66
2023/06/24 13:17:27;;;;;;;3.13;2.83;;;;;;;28.39;30.46;100405.31;10398527;28;20252;-66
2023/06/24 13:22:28;;;;;;;2.95;2.63;;;;;;;27.74;30.75;100433.06;10394251;28;20224;-67
2023/06/24 13:27:30;;;;;;;4.13;3.20;;;;;;;27.86;30.76;100419.75;10391607;28;20738;-66
2023/06/24 13:32:32;;;;;;;3.30;2.83;;;;;;;27.78;31.67;100426.69;10384441;28;20208;-66
2023/06/24 13:37:34;;;;;;;3.72;2.55;;;;;;;28.19;31.54;100407.16;10389770;28;20680;-67
2023/06/24 13:42:36;;;;;;;3.75;2.92;;;;;;;28.72;30.46;100386.28;10389340;28;20275;-66
2023/06/24 13:47:37;;;;;;;3.00;2.72;;;;;;;28.18;30.62;100391.75;10395946;28;20240;-68
2023/06/24 13:52:39;;;;;;;3.42;2.80;;;;;;;27.49;30.62;100405.41;10390475;28;20284;-66
2023/06/24 13:57:41;;;;;;;3.00;2.67;;;;;;;28.19;30.36;100398.09;10389624;28;20237;-66
2023/06/24 14:02:43;;;;;;;3.20;2.90;;;;;;;28.17;30.00;100403.00;10381909;28;20284;-66
2023/06/24 14:07:45;;;;;;;3.22;2.92;;;;;;;27.65;30.58;100402.56;10385602;28;20240;-66
2023/06/24 14:12:46;;;;;;;3.63;2.95;;;;;;;27.72;30.51;100366.53;10383409;28;20206;-65
2023/06/24 14:17:48;;;;;;;3.88;2.60;;;;;;;28.55;30.47;100364.69;10390113;28;21194;-66
2023/06/24 14:22:51;;;;;;;3.15;2.58;;;;;;;27.61;30.26;100396.00;10386171;28;20267;-67
2023/06/24 14:27:53;;;;;;;3.42;3.00;;;;;;;27.69;29.98;100387.13;10387751;28;20225;-66
2023/06/24 14:32:54;;;;;;;3.00;2.70;;;;;;;27.85;30.61;100374.97;10388985;22;20519;-42
2023/06/24 14:37:56;;;;;;;3.50;3.08;;;;;;;27.68;30.98;100375.34;10345425;28;20596;-40
2023/06/24 14:42:59;;;;;;;5.13;2.95;;;;;;;28.50;29.75;100346.28;10349966;28;20295;-42
2023/06/24 14:48:01;;;;;;;3.05;2.75;;;;;;;27.24;30.61;100358.84;10398179;22;20232;-40
2023/06/24 14:53:03;;;;;;;3.60;3.05;;;;;;;27.55;30.82;100367.72;10427625;28;20226;-37
2023/06/24 14:58:05;;;;;;;3.40;3.10;;;;;;;28.40;29.94;100330.72;10404628;28;20258;-41
2023/06/24 15:03:07;;;;;;;3.38;2.63;;;;;;;27.83;30.00;100344.19;10388489;28;20228;-39
2023/06/24 15:08:09;;;;;;;4.82;2.65;;;;;;;28.86;28.33;100342.31;10383199;28;20259;-41
2023/06/24 15:13:11;;;;;;;2.85;2.55;;;;;;;27.65;30.29;100358.59;10384382;28;20205;-39
2023/06/24 15:18:14;;;;;;;3.25;2.70;;;;;;;27.69;30.57;100354.97;10384404;28;20233;-40
2023/06/24 15:23:16;;;;;;;4.60;3.20;;;;;;;28.59;30.14;100313.44;10387265;28;20229;-42
2023/06/24 15:28:18;;;;;;;3.30;3.00;;;;;;;27.79;30.65;100314.81;10383707;28;20229;-41
2023/06/24 15:33:20;;;;;;;4.75;3.05;;;;;;;27.53;29.86;100311.41;10382260;28;20201;-38
2023/06/24 15:38:22;;;;;;;2.85;2.53;;;;;;;28.04;29.70;100322.81;10380124;28;20229;-39
2023/06/24 15:43:24;;;;;;;4.15;3.00;;;;;;;28.72;29.80;100304.50;10382231;28;20224;-41
2023/06/24 15:48:25;;;;;;;3.78;2.67;;;;;;;28.97;29.49;100292.31;10377970;28;20715;-41
2023/06/24 15:53:28;;;;;;;2.80;2.58;;;;;;;29.05;30.24;100299.09;10386466;28;20275;-38
2023/06/24 15:58:31;;;;;;;3.28;2.97;;;;;;;29.17;29.87;100298.69;10388486;28;20264;-43
2023/06/24 16:03:33;;;;;;;3.25;2.95;;;;;;;28.47;30.05;100321.28;10381383;28;20324;-41
2023/06/24 16:08:35;;;;;;;3.58;2.83;;;;;;;27.57;30.02;100329.78;10387790;28;20228;-40
2023/06/24 16:13:37;;;;;;;2.78;2.53;;;;;;;28.01;29.83;100298.63;10387435;28;20215;-40
2023/06/24 16:18:39;;;;;;;3.85;2.83;;;;;;;28.97;28.83;100289.56;10392043;28;20616;-41
2023/06/24 16:23:41;;;;;;;3.10;2.55;;;;;;;28.66;29.57;100288.31;10389659;28;20233;-39
2023/06/24 16:28:43;;;;;;;4.32;3.08;;;;;;;28.17;30.09;100303.97;10385316;28;20745;-40
2023/06/24 16:33:45;;;;;;;4.68;2.70;;;;;;;28.76;29.21;100289.03;10384935;28;20206;-41
2023/06/24 16:38:46;;;;;;;3.08;2.78;;;;;;;28.73;29.22;100297.06;10378446;28;20607;-40
2023/06/24 16:43:48;;;;;;;2.75;2.40;;;;;;;29.19;29.21;100301.94;10388958;28;20233;-41
2023/06/24 16:48:50;;;;;;;4.15;2.90;;;;;;;27.55;29.50;100284.44;10385337;28;20233;-42
2023/06/24 16:53:52;;;;;;;3.40;2.78;;;;;;;28.39;28.97;100300.72;10378878;28;20632;-38
2023/06/24 16:58:53;;;;;;;3.42;3.13;;;;;;;28.88;29.31;100294.09;10379348;28;20237;-38
2023/06/24 17:03:55;;;;;;;2.88;2.58;;;;;;;28.82;29.06;100295.28;10380911;28;20355;-40
2023/06/24 17:08:57;;;;;;;3.42;3.00;;;;;;;29.09;28.49;100289.09;10380904;28;20702;-38
2023/06/24 17:13:59;;;;;;;3.20;2.75;;;;;;;28.92;29.56;100299.84;10377312;28;20210;-39
2023/06/24 17:19:01;;;;;;;5.82;2.70;;;;;;;28.91;29.42;100299.00;10385412;28;20513;-39
2023/06/24 17:24:05;;;;;;;4.10;2.63;;;;;;;29.12;29.03;100288.56;10384738;28;20610;-40
2023/06/24 17:29:07;;;;;;;3.20;2.90;;;;;;;28.10;29.21;100279.56;10380002;28;20610;-39
2023/06/24 17:34:09;;;;;;;2.65;2.45;;;;;;;29.14;29.11;100272.53;10384132;28;20697;-41
2023/06/24 17:39:11;;;;;;;4.13;2.88;;;;;;;29.24;29.28;100290.03;10380336;28;20236;-40
2023/06/24 17:44:13;;;;;;;4.22;3.03;;;;;;;28.13;30.67;100276.22;10383463;28;20228;-38
2023/06/24 17:49:14;;;;;;;5.35;3.28;;;;;;;28.63;30.12;100277.88;10380320;28;20244;-41
2023/06/24 17:54:16;;;;;;;4.55;3.33;;;;;;;27.28;31.47;100258.31;10386146;28;20205;-38
2023/06/24 17:59:18;;;;;;;3.30;2.67;;;;;;;28.02;31.01;100277.44;10380170;28;20523;-41
2023/06/24 18:04:20;;;;;;;3.97;3.20;;;;;;;27.87;30.62;100250.94;10378578;28;20239;-39
2023/06/24 18:09:22;;;;;;;4.55;2.90;;;;;;;27.58;31.33;100246.25;10383261;28;20320;-38
2023/06/24 18:14:24;;;;;;;3.00;2.70;;;;;;;28.31;30.60;100246.38;10382180;28;20651;-39
2023/06/24 18:19:25;;;;;;;3.03;2.67;;;;;;;28.45;30.79;100235.47;10384419;28;20698;-38
2023/06/24 18:24:27;;;;;;;4.93;2.78;;;;;;;27.36;32.04;100257.66;10380254;28;20229;-39
2023/06/24 18:29:29;;;;;;;3.17;2.88;;;;;;;27.13;32.01;100260.00;10380435;28;20224;-39
2023/06/24 18:34:31;;;;;;;4.07;3.15;;;;;;;27.89;31.69;100232.22;10376925;28;20582;-43
2023/06/24 18:39:33;;;;;;;3.50;2.70;;;;;;;27.84;31.91;100232.28;10389212;28;20248;-42
2023/06/24 18:44:34;;;;;;;3.50;2.75;;;;;;;27.12;32.39;100255.59;10381733;28;20696;-42
2023/06/24 18:49:36;;;;;;;4.13;2.90;;;;;;;26.82;32.60;100261.28;10386885;28;20637;-39
2023/06/24 18:54:38;;;;;;;5.00;2.85;;;;;;;27.40;32.17;100260.69;10386218;28;20196;-41
2023/06/24 18:59:42;;;;;;;7.07;3.15;;;;;;;25.84;33.75;100245.09;10381502;28;20240;-40
2023/06/24 19:04:43;;;;;;;3.40;3.10;;;;;;;27.45;32.57;100244.97;10390024;28;20236;-39
2023/06/24 19:09:45;;;;;;;3.88;2.92;;;;;;;27.40;32.75;100230.47;10377491;28;20585;-42
2023/06/24 19:14:47;;;;;;;5.35;3.25;;;;;;;26.83;33.19;100238.25;10391745;28;20216;-40
2023/06/24 19:19:49;;;;;;;4.63;3.28;;;;;;;27.96;32.28;100232.69;10388439;28;20225;-40
2023/06/24 19:24:51;;;;;;;4.35;3.08;;;;;;;26.68;33.17;100248.16;10394189;28;20234;-42
2023/06/24 19:29:53;;;;;;;3.38;2.97;;;;;;;25.17;34.91;100249.72;10399655;28;20574;-40
2023/06/24 19:34:55;;;;;;;3.63;3.10;;;;;;;27.66;32.27;100222.78;10390931;28;20667;-37
2023/06/24 19:39:58;;;;;;;3.72;3.20;;;;;;;25.91;33.35;100261.28;10397807;28;20229;-41
2023/06/24 19:44:59;;;;;;;3.42;2.90;;;;;;;26.32;33.59;100225.56;10392002;28;20229;-41
2023/06/24 19:50:01;;;;;;;3.70;2.95;;;;;;;25.94;33.76;100257.97;10398097;28;20428;-41
2023/06/24 19:55:03;;;;;;;4.18;3.25;;;;;;;27.39;32.33;100231.56;10387873;28;20726;-38
2023/06/24 20:00:06;;;;;;;4.28;3.60;;;;;;;25.75;34.10;100274.19;10389415;28;20744;-40
2023/06/24 20:05:08;;;;;;;3.88;3.38;;;;;;;27.17;32.78;100257.50;10395854;28;20220;-39
2023/06/24 20:10:10;;;;;;;3.92;3.40;;;;;;;26.52;33.79;100258.41;10396930;28;20274;-37
2023/06/24 20:15:13;;;;;;;6.25;3.33;;;;;;;24.92;34.69;100254.88;10393680;28;20636;-38
2023/06/24 20:20:15;;;;;;;3.45;3.15;;;;;;;25.53;34.25;100267.03;10390993;28;20224;-40
2023/06/24 20:25:17;;;;;;;4.55;3.30;;;;;;;24.93;34.60;100255.69;10391678;28;20234;-42
2023/06/24 20:30:19;;;;;;;4.60;3.55;;;;;;;24.11;35.60;100238.91;10390101;28;20228;-39
2023/06/24 20:35:20;;;;;;;5.15;3.25;;;;;;;25.21;34.54;100243.47;10392968;28;20287;-41
2023/06/24 20:40:22;;;;;;;5.40;3.33;;;;;;;25.54;34.06;100257.72;10393684;28;21199;-40
2023/06/24 20:45:24;;;;;;;6.25;3.42;;;;;;;25.76;34.18;100246.50;10395617;28;20236;-41
2023/06/24 20:50:26;;;;;;;4.00;3.38;;;;;;;25.13;34.63;100279.56;10391978;28;20249;-40
2023/06/24 20:55:27;;;;;;;4.47;3.15;;;;;;;25.34;34.53;100244.84;10395482;28;20332;-40
2023/06/24 21:00:29;;;;;;;4.07;3.20;;;;;;;26.01;33.74;100261.25;10391816;28;20852;-40
2023/06/24 21:05:31;;;;;;;3.28;2.97;;;;;;;25.69;34.05;100265.09;10393657;28;20944;-38
2023/06/24 21:10:33;;;;;;;4.25;3.35;;;;;;;24.22;35.06;100281.63;10391869;28;20685;-41
2023/06/24 21:15:35;;;;;;;3.97;3.15;;;;;;;25.34;34.58;100239.38;10392525;28;20204;-41
2023/06/24 21:20:38;;;;;;;4.15;3.13;;;;;;;25.75;34.02;100250.34;10393358;28;20621;-40
2023/06/24 21:25:40;;;;;;;4.53;3.22;;;;;;;23.50;36.48;100255.63;10388018;28;20259;-40
2023/06/24 21:30:42;;;;;;;3.70;3.30;;;;;;;24.31;35.92;100225.38;10393635;28;20233;-39
2023/06/24 21:35:44;;;;;;;4.22;3.50;;;;;;;24.81;35.30;100227.75;10394569;28;20205;-39
2023/06/24 21:41:01;;;;;;;4.15;3.10;;;;;;;23.26;37.06;100264.16;10385773;28;20208;-40
2023/06/24 21:46:03;;;;;;;4.07;3.40;;;;;;;23.89;36.66;100248.06;10390613;28;20255;-39
2023/06/24 21:51:05;;;;;;;6.70;3.28;;;;;;;24.22;36.29;100216.00;10392579;28;20832;-39
2023/06/24 21:56:07;;;;;;;4.50;3.08;;;;;;;25.87;34.77;100228.13;10386102;28;20239;-42
2023/06/24 22:01:09;;;;;;;4.50;3.67;;;;;;;25.31;35.24;100242.66;10390648;28;20216;-39
2023/06/24 22:06:11;;;;;;;5.25;3.80;;;;;;;24.41;35.92;100259.31;10383410;28;20311;-39
2023/06/24 22:11:13;;;;;;;3.72;3.38;;;;;;;22.97;38.14;100255.38;10388705;28;20211;-38
2023/06/24 22:16:17;;;;;;;4.88;4.10;;;;;;;23.70;37.42;100244.09;10386872;28;20247;-38
2023/06/24 22:21:19;;;;;;;4.65;3.80;;;;;;;24.16;36.66;100228.84;10395192;28;20209;-37
2023/06/24 22:26:20;;;;;;;6.43;3.80;;;;;;;24.10;37.26;100224.38;10383778;28;20244;-38
2023/06/24 22:31:22;;;;;;;4.45;3.63;;;;;;;23.24;38.09;100230.84;10386749;28;20675;-38
2023/06/24 22:36:24;;;;;;;4.35;3.47;;;;;;;22.78;38.78;100235.81;10387442;28;20236;-41
2023/06/24 22:41:26;;;;;;;4.65;3.55;;;;;;;22.37;38.83;100246.16;10389863;28;20259;-41
2023/06/24 22:46:28;;;;;;;6.22;3.53;;;;;;;23.74;37.40;100210.53;10386886;28;20687;-41
2023/06/24 22:51:30;;;;;;;4.93;3.63;;;;;;;23.52;37.62;100245.28;10390323;28;20619;-37
2023/06/24 22:56:32;;;;;;;8.57;4.65;;;;;;;22.78;38.97;100212.06;10383051;28;20786;-36
2023/06/24 23:01:34;;;;;;;5.88;4.18;;;;;;;21.96;40.11;100220.03;10382166;28;20579;-41
2023/06/24 23:06:36;;;;;;;5.65;4.13;;;;;;;21.14;41.67;100223.22;10388683;28;20233;-40
2023/06/24 23:11:38;;;;;;;4.72;4.07;;;;;;;22.79;39.68;100152.88;10389111;28;20215;-40
2023/06/24 23:16:40;;;;;;;5.63;4.10;;;;;;;22.63;39.87;100163.63;10386509;28;20221;-40